createdAt,value
2019-04-05T00:01:09.281Z,1.30
2019-04-05T00:03:38.336Z,1.13
2019-04-05T00:06:07.388Z,1.40
2019-04-05T00:08:36.448Z,1.30
2019-04-05T00:11:05.566Z,1.23
2019-04-05T00:13:34.626Z,1.60
2019-04-05T00:16:03.740Z,1.57
2019-04-05T00:18:32.796Z,1.47
2019-04-05T00:21:01.846Z,1.03
2019-04-05T00:23:30.966Z,1.30
2019-04-05T00:26:00.096Z,1.37
2019-04-05T00:28:29.169Z,1.30
2019-04-05T00:30:58.200Z,1.27
2019-04-05T00:33:27.261Z,1.23
2019-04-05T00:35:56.367Z,1.63
2019-04-05T00:38:25.604Z,1.77
2019-04-05T00:40:54.653Z,1.30
2019-04-05T00:43:23.713Z,1.50
2019-04-05T00:45:52.728Z,1.30
2019-04-05T00:48:21.760Z,1.20
2019-04-05T00:50:50.729Z,1.07
2019-04-05T00:53:19.808Z,1.23
2019-04-05T00:55:49.322Z,1.47
2019-04-05T00:58:18.374Z,1.37
2019-04-05T01:00:47.432Z,1.20
2019-04-05T01:03:16.515Z,1.33
2019-04-05T01:05:45.580Z,1.10
2019-04-05T01:08:14.675Z,1.20
2019-04-05T01:10:43.720Z,1.57
2019-04-05T01:13:12.769Z,1.20
2019-04-05T01:15:41.871Z,1.60
2019-04-05T01:18:11.371Z,1.43
2019-04-05T01:20:42.558Z,1.10
2019-04-05T01:23:12.332Z,1.30
2019-04-05T01:25:41.404Z,1.23
2019-04-05T01:28:10.653Z,1.60
2019-04-05T01:30:39.713Z,1.20
2019-04-05T01:33:08.957Z,1.40
2019-04-05T01:35:38.033Z,1.67
2019-04-05T01:38:07.137Z,1.30
2019-04-05T01:40:39.248Z,1.23
2019-04-05T01:43:09.201Z,1.40
2019-04-05T01:45:38.256Z,1.40
2019-04-05T01:48:07.310Z,1.00
2019-04-05T01:50:36.480Z,1.00
2019-04-05T01:53:05.520Z,1.27
2019-04-05T01:55:34.577Z,1.20
2019-04-05T01:58:03.617Z,1.43
2019-04-05T02:00:32.672Z,1.40
2019-04-05T02:03:01.712Z,1.17
2019-04-05T02:05:30.779Z,1.30
2019-04-05T02:07:59.812Z,1.23
2019-04-05T02:10:28.969Z,0.97
2019-04-05T02:12:58.448Z,1.33
2019-04-05T02:15:28.957Z,1.20
2019-04-05T02:17:58.430Z,1.13
2019-04-05T02:20:27.922Z,1.20
2019-04-05T02:22:57.060Z,1.27
2019-04-05T02:25:26.334Z,1.20
2019-04-05T02:27:55.870Z,1.20
2019-04-05T02:30:25.825Z,1.57
2019-04-05T02:32:54.889Z,1.10
2019-04-05T02:35:23.965Z,1.20
2019-04-05T02:37:52.991Z,1.00
2019-04-05T02:40:24.313Z,1.10
2019-04-05T02:42:55.427Z,1.20
2019-04-05T02:45:25.483Z,1.10
2019-04-05T02:47:58.297Z,1.60
2019-04-05T02:50:30.481Z,1.30
2019-04-05T02:53:02.662Z,1.40
2019-04-05T02:55:32.557Z,1.60
2019-04-05T02:58:03.411Z,1.10
2019-04-05T03:00:33.817Z,1.10
2019-04-05T03:03:05.476Z,1.20
2019-04-05T03:05:35.463Z,1.20
2019-04-05T03:08:04.966Z,1.10
2019-04-05T03:11:03.349Z,1.30
2019-04-05T03:13:49.069Z,1.47
2019-04-05T03:16:38.599Z,1.20
2019-04-05T03:19:04.451Z,1.10
2019-04-05T03:21:35.465Z,1.53
2019-04-05T03:24:05.775Z,1.30
2019-04-05T03:26:38.592Z,1.40
2019-04-05T03:29:10.035Z,1.63
2019-04-05T03:31:39.611Z,1.67
2019-04-05T03:34:08.811Z,5.53
2019-04-05T03:36:39.591Z,41.10
2019-04-05T03:39:08.914Z,35.30
2019-04-05T03:41:38.472Z,45.50
2019-04-05T03:44:08.443Z,41.73
2019-04-05T03:46:37.896Z,46.80
2019-04-05T03:49:06.983Z,46.73
2019-04-05T03:51:36.506Z,45.37
2019-04-05T03:54:06.170Z,48.60
2019-04-05T03:56:37.963Z,46.73
2019-04-05T03:59:06.698Z,49.00
2019-04-05T04:01:35.968Z,44.83
2019-04-05T04:04:05.197Z,46.80
2019-04-05T04:06:34.567Z,45.10
2019-04-05T04:09:04.576Z,46.37
2019-04-05T04:11:33.967Z,39.43
2019-04-05T04:14:03.088Z,43.07
2019-04-05T04:16:32.440Z,43.93
2019-04-05T04:19:01.486Z,41.23
2019-04-05T04:22:11.130Z,41.97
2019-04-05T04:24:40.203Z,39.83
2019-04-05T04:27:09.474Z,36.67
2019-04-05T04:29:38.626Z,36.30
2019-04-05T04:32:08.118Z,40.10
2019-04-05T04:34:37.458Z,37.80
2019-04-05T04:37:06.528Z,34.47
2019-04-05T04:39:35.701Z,34.50
2019-04-05T04:42:05.185Z,35.73
2019-04-05T04:44:34.335Z,34.30
2019-04-05T04:47:03.542Z,32.93
2019-04-05T04:49:33.345Z,33.70
2019-04-05T04:52:02.720Z,29.67
2019-04-05T04:54:32.266Z,31.87
2019-04-05T04:57:01.732Z,29.40
2019-04-05T04:59:30.801Z,32.37
2019-04-05T05:01:59.861Z,28.93
2019-04-05T05:04:29.404Z,30.00
2019-04-05T05:06:58.476Z,25.50
2019-04-05T05:09:28.230Z,29.73
2019-04-05T05:11:57.492Z,27.67
2019-04-05T05:14:27.236Z,28.20
2019-04-05T05:16:56.484Z,26.30
2019-04-05T05:19:25.549Z,26.90
2019-04-05T05:21:54.600Z,25.77
2019-04-05T05:24:23.743Z,24.70
2019-04-05T05:26:53.013Z,24.40
2019-04-05T05:29:22.572Z,24.53
2019-04-05T05:31:51.809Z,23.60
2019-04-05T05:34:21.360Z,24.80
2019-04-05T05:36:50.413Z,23.60
2019-04-05T05:39:19.817Z,24.20
2019-04-05T05:41:48.902Z,23.80
2019-04-05T05:44:17.982Z,23.27
2019-04-05T05:46:47.045Z,24.20
2019-04-05T05:49:16.105Z,21.20
2019-04-05T05:51:46.979Z,21.20
2019-04-05T05:54:16.017Z,21.70
2019-04-05T05:56:45.083Z,21.07
2019-04-05T05:59:14.137Z,21.80
2019-04-05T06:01:43.204Z,21.80
2019-04-05T06:04:12.854Z,21.47
2019-04-05T06:06:42.105Z,20.57
2019-04-05T06:09:11.148Z,19.30
2019-04-05T06:11:40.222Z,19.47
2019-04-05T06:14:09.271Z,20.77
2019-04-05T06:16:46.263Z,19.50
2019-04-05T06:19:09.170Z,19.67
2019-04-05T06:21:38.218Z,18.77
2019-04-05T06:24:07.286Z,17.90
2019-04-05T06:26:36.330Z,19.13
2019-04-05T06:29:05.532Z,19.27
2019-04-05T06:31:34.682Z,20.70
2019-04-05T06:34:03.766Z,17.50
2019-04-05T06:36:33.081Z,18.20
2019-04-05T06:39:02.201Z,18.20
2019-04-05T06:41:31.255Z,17.70
2019-04-05T06:44:00.321Z,16.27
2019-04-05T06:46:29.392Z,15.57
2019-04-05T06:48:58.449Z,15.93
2019-04-05T06:51:27.521Z,17.50
2019-04-05T06:53:56.561Z,17.10
2019-04-05T06:56:25.625Z,16.90
2019-04-05T06:58:54.672Z,16.23
2019-04-05T07:01:23.728Z,15.30
2019-04-05T07:03:55.162Z,16.40
2019-04-05T07:06:23.568Z,15.77
2019-04-05T07:08:54.054Z,16.17
2019-04-05T07:11:23.345Z,14.87
2019-04-05T07:13:52.381Z,14.60
2019-04-05T07:16:21.449Z,15.23
2019-04-05T07:18:50.501Z,15.40
2019-04-05T07:21:19.554Z,14.80
2019-04-05T07:23:48.624Z,13.43
2019-04-05T07:26:19.603Z,14.47
2019-04-05T07:28:48.475Z,14.57
2019-04-05T07:31:17.525Z,14.97
2019-04-05T07:33:46.589Z,13.60
2019-04-05T07:36:15.784Z,14.50
2019-04-05T07:38:44.857Z,13.57
2019-04-05T07:41:13.912Z,12.67
2019-04-05T07:43:42.977Z,12.90
2019-04-05T07:46:12.028Z,14.23
2019-04-05T07:48:45.176Z,13.03
2019-04-05T07:51:11.605Z,12.60
2019-04-05T07:53:40.689Z,12.40
2019-04-05T07:56:09.741Z,12.23
2019-04-05T07:58:38.805Z,13.20
2019-04-05T08:01:07.844Z,12.57
2019-04-05T08:03:36.896Z,12.80
2019-04-05T08:06:05.941Z,13.77
2019-04-05T08:09:02.175Z,12.63
2019-04-05T08:11:30.885Z,12.50
2019-04-05T08:14:01.979Z,13.37
2019-04-05T08:16:31.056Z,12.87
2019-04-05T08:19:00.101Z,11.83
2019-04-05T08:21:29.150Z,11.37
2019-04-05T08:23:58.248Z,11.53
2019-04-05T08:26:27.347Z,11.10
2019-04-05T08:28:56.395Z,9.70
2019-04-05T08:31:25.460Z,11.07
2019-04-05T08:33:54.573Z,10.47
2019-04-05T08:36:23.640Z,10.90
2019-04-05T08:38:52.690Z,11.33
2019-04-05T08:41:21.753Z,11.07
2019-04-05T08:43:50.821Z,10.40
2019-04-05T08:46:19.900Z,10.57
2019-04-05T08:48:48.949Z,10.90
2019-04-05T08:51:18.013Z,10.40
2019-04-05T08:53:47.059Z,9.23
2019-04-05T08:56:16.171Z,10.80
2019-04-05T08:58:45.264Z,10.00
2019-04-05T09:01:14.372Z,11.27
2019-04-05T09:03:43.463Z,10.17
2019-04-05T09:06:12.637Z,9.03
2019-04-05T09:08:41.694Z,9.50
2019-04-05T09:11:10.764Z,9.60
2019-04-05T09:13:39.820Z,8.87
2019-04-05T09:16:11.626Z,10.33
2019-04-05T09:18:39.673Z,11.50
2019-04-05T09:21:10.103Z,10.77
2019-04-05T09:23:39.388Z,8.60
2019-04-05T09:26:08.455Z,9.60
2019-04-05T09:28:37.496Z,8.80
2019-04-05T09:31:06.621Z,8.30
2019-04-05T09:33:35.680Z,9.47
2019-04-05T09:36:04.836Z,8.97
2019-04-05T09:38:34.154Z,9.10
2019-04-05T09:41:03.265Z,8.27
2019-04-05T09:43:32.343Z,8.63
2019-04-05T09:46:01.392Z,8.70
2019-04-05T09:48:30.465Z,7.50
2019-04-05T09:50:59.519Z,8.00
2019-04-05T09:53:28.632Z,7.60
2019-04-05T09:55:57.669Z,7.73
2019-04-05T09:58:26.732Z,8.23
2019-04-05T10:00:55.794Z,8.30
2019-04-05T10:03:24.867Z,7.73
2019-04-05T10:05:54.333Z,7.40
2019-04-05T10:08:23.469Z,7.83
2019-04-05T10:10:52.604Z,8.77
2019-04-05T10:13:21.674Z,6.90
2019-04-05T10:15:50.709Z,8.60
2019-04-05T10:18:19.784Z,7.77
2019-04-05T10:20:48.844Z,8.03
2019-04-05T10:23:17.884Z,7.93
2019-04-05T10:25:46.954Z,7.87
2019-04-05T10:28:16.011Z,7.80
2019-04-05T10:30:45.085Z,8.30
2019-04-05T10:33:14.134Z,7.80
2019-04-05T10:35:43.196Z,7.87
2019-04-05T10:38:12.245Z,6.77
2019-04-05T10:40:41.381Z,7.70
2019-04-05T10:43:10.439Z,6.80
2019-04-05T10:45:39.496Z,7.50
2019-04-05T10:48:08.549Z,5.97
2019-04-05T10:50:37.693Z,6.90
2019-04-05T10:53:06.736Z,6.17
2019-04-05T10:55:35.876Z,8.17
2019-04-05T10:58:05.214Z,7.30
2019-04-05T11:00:34.402Z,7.20
2019-04-05T11:03:03.464Z,8.17
2019-04-05T11:05:32.621Z,7.70
2019-04-05T11:08:01.678Z,5.97
2019-04-05T11:10:30.749Z,7.10
2019-04-05T11:12:59.792Z,6.43
2019-04-05T11:15:31.053Z,6.20
2019-04-05T11:17:59.768Z,5.67
2019-04-05T11:20:28.824Z,7.33
2019-04-05T11:22:57.894Z,6.70
2019-04-05T11:25:26.953Z,6.63
2019-04-05T11:27:56.019Z,5.63
2019-04-05T11:30:47.283Z,6.27
2019-04-05T11:33:19.492Z,6.13
2019-04-05T11:35:47.435Z,6.13
2019-04-05T11:38:17.770Z,6.23
2019-04-05T11:40:47.149Z,5.53
2019-04-05T11:43:16.727Z,6.33
2019-04-05T11:45:46.007Z,5.90
2019-04-05T11:48:15.016Z,5.80
2019-04-05T11:50:44.179Z,6.50
2019-04-05T11:53:13.204Z,6.90
2019-04-05T11:55:42.271Z,5.40
2019-04-05T11:58:11.318Z,5.87
2019-04-05T12:00:46.247Z,6.40
2019-04-05T12:03:15.405Z,6.00
2019-04-05T12:05:44.456Z,6.07
2019-04-05T12:08:13.501Z,6.00
2019-04-05T12:10:42.564Z,6.17
2019-04-05T12:13:11.633Z,5.63
2019-04-05T12:15:40.673Z,5.70
2019-04-05T12:18:09.726Z,6.00
2019-04-05T12:20:49.235Z,6.13
2019-04-05T12:23:09.648Z,5.80
2019-04-05T12:25:38.703Z,6.03
2019-04-05T12:28:10.630Z,4.90
2019-04-05T12:30:39.673Z,5.63
2019-04-05T12:33:14.139Z,5.20
2019-04-05T12:35:39.513Z,5.30
2019-04-05T12:38:08.582Z,5.00
2019-04-05T12:40:38.456Z,5.37
2019-04-05T12:43:08.401Z,5.70
2019-04-05T12:45:37.474Z,5.67
2019-04-05T12:48:06.601Z,5.00
2019-04-05T12:50:35.706Z,4.90
2019-04-05T12:53:04.753Z,5.30
2019-04-05T12:55:33.852Z,5.73
2019-04-05T12:58:02.918Z,4.40
2019-04-05T13:00:31.986Z,4.93
2019-04-05T13:03:01.049Z,5.33
2019-04-05T13:05:30.134Z,4.90
2019-04-05T13:07:59.172Z,5.07
2019-04-05T13:10:30.340Z,5.43
2019-04-05T13:12:59.157Z,4.77
2019-04-05T13:15:28.271Z,6.10
2019-04-05T13:18:00.406Z,4.57
2019-04-05T13:20:30.224Z,5.20
2019-04-05T13:23:02.168Z,5.13
2019-04-05T13:25:29.639Z,4.93
2019-04-05T13:27:58.715Z,5.17
2019-04-05T13:30:27.749Z,4.20
2019-04-05T13:32:56.828Z,4.50
2019-04-05T13:35:25.881Z,5.00
2019-04-05T13:37:55.012Z,4.53
2019-04-05T13:40:24.157Z,3.77
2019-04-05T13:42:53.201Z,4.70
2019-04-05T13:45:22.269Z,5.17
2019-04-05T13:47:51.292Z,4.43
2019-04-05T13:50:20.329Z,4.23
2019-04-05T13:52:49.353Z,4.50
2019-04-05T13:55:18.396Z,4.13
2019-04-05T13:57:47.454Z,4.50
2019-04-05T14:00:18.346Z,4.13
2019-04-05T14:02:49.977Z,4.03
2019-04-05T14:05:18.272Z,4.13
2019-04-05T14:07:47.308Z,4.50
2019-04-05T14:10:16.396Z,4.17
2019-04-05T14:12:45.449Z,3.87
2019-04-05T14:15:14.510Z,4.10
2019-04-05T14:17:44.763Z,4.17
2019-04-05T14:20:14.302Z,4.20
2019-04-05T14:22:43.355Z,4.40
2019-04-05T14:25:13.106Z,3.93
2019-04-05T14:27:42.160Z,4.37
2019-04-05T14:30:13.678Z,3.53
2019-04-05T14:32:42.602Z,3.33
2019-04-05T14:35:11.733Z,3.80
2019-04-05T14:37:40.789Z,4.17
2019-04-05T14:40:10.344Z,3.83
2019-04-05T14:42:39.408Z,3.80
2019-04-05T14:45:08.847Z,3.97
2019-04-05T14:47:37.889Z,3.97
2019-04-05T14:50:07.319Z,3.60
2019-04-05T14:52:36.362Z,3.23
2019-04-05T14:55:05.643Z,3.63
2019-04-05T14:57:36.425Z,3.87
2019-04-05T15:00:06.656Z,3.70
2019-04-05T15:02:35.702Z,3.70
2019-04-05T15:05:05.574Z,4.10
2019-04-05T15:07:37.519Z,3.83
2019-04-05T15:10:06.881Z,3.57
2019-04-05T15:12:35.932Z,3.63
2019-04-05T15:15:05.619Z,3.50
2019-04-05T15:17:46.863Z,4.73
2019-04-05T15:20:06.289Z,3.00
2019-04-05T15:22:35.358Z,3.20
2019-04-05T15:25:05.134Z,3.33
2019-04-05T15:27:34.359Z,3.00
2019-04-05T15:30:03.413Z,3.70
2019-04-05T15:32:33.400Z,3.47
2019-04-05T15:35:02.522Z,3.70
2019-04-05T15:37:32.476Z,3.23
2019-04-05T15:40:01.806Z,3.90
2019-04-05T15:42:30.877Z,3.40
2019-04-05T15:44:59.917Z,3.70
2019-04-05T15:47:31.713Z,3.30
2019-04-05T15:49:59.759Z,3.27
2019-04-05T15:52:31.865Z,3.63
2019-04-05T15:54:59.588Z,3.77
2019-04-05T15:57:28.620Z,3.20
2019-04-05T15:59:57.753Z,3.57
2019-04-05T16:02:26.791Z,3.40
2019-04-05T16:04:55.844Z,2.87
2019-04-05T16:07:24.963Z,3.73
2019-04-05T16:09:54.045Z,2.80
2019-04-05T16:12:23.124Z,3.20
2019-04-05T16:14:52.136Z,3.50
2019-04-05T16:17:21.202Z,3.33
2019-04-05T16:19:50.289Z,3.27
2019-04-05T16:22:30.877Z,3.47
2019-04-05T16:24:50.224Z,3.80
2019-04-05T16:27:19.286Z,3.37
2019-04-05T16:29:48.352Z,3.50
2019-04-05T16:32:17.411Z,2.70
2019-04-05T16:34:46.457Z,3.10
2019-04-05T16:37:15.527Z,2.87
2019-04-05T16:39:44.588Z,3.10
2019-04-05T16:42:13.650Z,2.47
2019-04-05T16:44:42.688Z,2.83
2019-04-05T16:47:11.777Z,3.10
2019-04-05T16:49:40.831Z,3.40
2019-04-05T16:52:09.893Z,3.77
2019-04-05T16:54:38.968Z,3.33
2019-04-05T16:57:08.050Z,3.20
2019-04-05T16:59:37.094Z,2.33
2019-04-05T17:02:06.177Z,3.20
2019-04-05T17:04:35.225Z,3.20
2019-04-05T17:07:04.311Z,2.77
2019-04-05T17:09:33.366Z,3.20
2019-04-05T17:12:02.416Z,2.53
2019-04-05T17:14:31.536Z,3.20
2019-04-05T17:17:00.593Z,3.00
2019-04-05T17:19:29.636Z,2.63
2019-04-05T17:21:58.696Z,2.63
2019-04-05T17:24:27.755Z,3.20
2019-04-05T17:26:56.822Z,2.37
2019-04-05T17:29:25.877Z,3.00
2019-04-05T17:31:54.997Z,2.53
2019-04-05T17:34:24.033Z,3.00
2019-04-05T17:36:53.150Z,3.00
2019-04-05T17:39:22.212Z,3.27
2019-04-05T17:41:51.270Z,2.63
2019-04-05T17:44:20.317Z,3.23
2019-04-05T17:46:49.385Z,2.83
2019-04-05T17:49:18.429Z,2.60
2019-04-05T17:51:47.509Z,3.33
2019-04-05T17:54:16.540Z,2.60
2019-04-05T17:56:46.000Z,2.97
2019-04-05T17:59:15.338Z,2.93
2019-04-05T18:01:44.393Z,2.47
2019-04-05T18:04:13.465Z,2.60
2019-04-05T18:06:42.531Z,3.00
2019-04-05T18:09:11.582Z,2.40
2019-04-05T18:11:40.650Z,2.83
2019-04-05T18:14:09.688Z,2.90
2019-04-05T18:16:38.807Z,2.20
2019-04-05T18:19:07.851Z,2.70
2019-04-05T18:21:36.984Z,2.77
2019-04-05T18:24:06.024Z,2.63
2019-04-05T18:26:35.060Z,2.40
2019-04-05T18:29:04.438Z,3.20
2019-04-05T18:31:33.464Z,2.43
2019-04-05T18:34:02.525Z,2.97
2019-04-05T18:36:31.561Z,2.83
2019-04-05T18:39:00.616Z,2.93
2019-04-05T18:41:29.654Z,2.40
2019-04-05T18:43:58.708Z,3.17
2019-04-05T18:46:28.662Z,2.50
2019-04-05T18:48:57.733Z,2.87
2019-04-05T18:51:26.778Z,2.20
2019-04-05T18:53:55.823Z,2.63
2019-04-05T18:56:24.857Z,2.67
2019-04-05T18:58:53.992Z,3.10
2019-04-05T19:01:23.037Z,2.43
2019-04-05T19:03:52.147Z,2.37
2019-04-05T19:06:21.163Z,3.13
2019-04-05T19:08:50.244Z,2.67
2019-04-05T19:11:19.290Z,3.27
2019-04-05T19:14:00.573Z,2.93
2019-04-05T19:16:19.070Z,2.37
2019-04-05T19:18:48.109Z,3.33
2019-04-05T19:21:17.144Z,3.10
2019-04-05T19:23:51.142Z,2.40
2019-04-05T19:26:17.069Z,2.67
2019-04-05T19:28:46.174Z,4.30
2019-04-05T19:48:50.826Z,3.37
2019-04-05T19:51:19.896Z,3.30
2019-04-05T19:53:49.573Z,3.00
2019-04-05T19:56:19.231Z,3.27
2019-04-05T19:58:48.836Z,3.20
2019-04-05T20:01:18.737Z,3.40
2019-04-05T20:03:48.575Z,3.00
2019-04-05T20:06:18.309Z,3.07
2019-04-05T20:08:48.025Z,2.97
2019-04-05T20:11:18.117Z,3.20
2019-04-05T20:13:47.761Z,3.17
2019-04-05T20:16:17.340Z,3.03
2019-04-05T20:18:47.074Z,3.30
2019-04-05T20:21:16.740Z,3.10
2019-04-05T20:23:47.639Z,3.33
2019-04-05T20:26:17.722Z,3.47
2019-04-05T20:28:47.117Z,3.03
2019-04-05T20:31:16.819Z,3.33
2019-04-05T20:33:46.384Z,2.70
2019-04-05T20:36:16.069Z,2.60
2019-04-05T20:38:45.699Z,3.47
2019-04-05T20:41:15.287Z,3.80
2019-04-05T20:43:44.731Z,3.10
2019-04-05T20:46:13.839Z,2.90
2019-04-05T20:48:42.877Z,2.67
2019-04-05T20:51:11.915Z,2.97
2019-04-05T20:53:40.979Z,2.17
2019-04-05T20:56:10.915Z,2.30
2019-04-05T20:58:39.980Z,2.70
2019-04-05T21:01:09.034Z,2.43
2019-04-05T21:03:38.097Z,2.43
2019-04-05T21:06:07.162Z,2.80
2019-04-05T21:08:36.234Z,3.10
2019-04-05T21:11:05.313Z,2.93
2019-04-05T21:13:34.492Z,3.27
2019-04-05T21:16:03.617Z,2.13
2019-04-05T21:18:32.671Z,2.60
2019-04-05T21:21:01.743Z,2.20
2019-04-05T21:23:30.797Z,2.70
2019-04-05T21:25:59.905Z,2.30
2019-04-05T21:28:28.949Z,2.10
2019-04-05T21:30:58.017Z,2.23
2019-04-05T21:33:27.073Z,2.60
2019-04-05T21:35:56.143Z,3.20
2019-04-05T21:38:25.173Z,2.60
2019-04-05T21:40:54.249Z,1.90
2019-04-05T21:43:23.313Z,2.30
2019-04-05T21:45:52.403Z,2.30
2019-04-05T21:48:21.494Z,2.27
2019-04-05T21:50:50.653Z,2.20
2019-04-05T21:53:19.771Z,2.13
2019-04-05T21:55:48.904Z,2.40
2019-04-05T21:58:17.957Z,2.00
2019-04-05T22:01:02.051Z,2.27
2019-04-05T22:03:32.056Z,2.20
2019-04-05T22:06:01.677Z,1.90
2019-04-05T22:08:31.847Z,2.10
2019-04-05T22:11:01.711Z,2.17
2019-04-05T22:13:30.812Z,1.77
2019-04-05T22:15:59.928Z,2.10
2019-04-05T22:18:28.989Z,2.00
2019-04-05T22:20:58.132Z,2.10
2019-04-05T22:23:27.402Z,2.53
2019-04-05T22:25:56.466Z,2.40
2019-04-05T22:28:25.521Z,2.43
2019-04-05T22:30:55.066Z,1.63
2019-04-05T22:33:24.128Z,2.40
2019-04-05T22:35:53.172Z,1.80
2019-04-05T22:38:22.301Z,2.23
2019-04-05T22:40:51.371Z,2.40
2019-04-05T22:43:20.412Z,2.20
2019-04-05T22:45:49.585Z,2.10
2019-04-05T22:48:18.675Z,2.40
2019-04-05T22:50:48.383Z,2.13
2019-04-05T22:53:17.532Z,2.30
2019-04-05T22:55:46.649Z,1.60
2019-04-05T22:58:15.692Z,2.00
2019-04-05T23:00:44.750Z,1.97
2019-04-05T23:03:13.780Z,1.80
2019-04-05T23:05:42.836Z,2.03
2019-04-05T23:08:12.031Z,1.90
2019-04-05T23:10:41.018Z,1.80
2019-04-05T23:13:10.109Z,1.93
2019-04-05T23:15:39.207Z,2.23
2019-04-05T23:18:08.241Z,2.03
2019-04-05T23:20:37.295Z,2.13
2019-04-05T23:23:06.341Z,1.97
2019-04-05T23:25:35.326Z,2.33
2019-04-05T23:28:04.381Z,1.80
2019-04-05T23:30:33.538Z,2.13
2019-04-05T23:33:02.590Z,2.13
2019-04-05T23:35:31.637Z,2.50
2019-04-05T23:38:00.700Z,2.00
2019-04-05T23:40:29.736Z,2.20
2019-04-05T23:42:58.829Z,2.60
2019-04-05T23:45:27.887Z,2.10
2019-04-05T23:47:57.341Z,2.17
2019-04-05T23:50:26.641Z,2.17
2019-04-05T23:52:55.813Z,2.20
2019-04-05T23:55:33.109Z,1.83
2019-04-05T23:57:55.737Z,2.10
